sensor_id;sensor_type;location;lat;lon;timestamp;pressure;altitude;pressure_sealevel;temperature;humidity
39891;BME280;25564;53.312;9.790;2022-09-17T00:02:07;99808.88;;;12.61;97.40
39891;BME280;25564;53.312;9.790;2022-09-17T00:04:39;99807.94;;;12.62;97.23
39891;BME280;25564;53.312;9.790;2022-09-17T00:07:11;99817.66;;;12.63;97.18
39891;BME280;25564;53.312;9.790;2022-09-17T00:09:42;99817.78;;;12.60;97.10
39891;BME280;25564;53.312;9.790;2022-09-17T00:12:14;99827.63;;;12.58;97.04
39891;BME280;25564;53.312;9.790;2022-09-17T00:14:45;99813.75;;;12.50;96.92
39891;BME280;25564;53.312;9.790;2022-09-17T00:17:17;99818.44;;;12.44;96.92
39891;BME280;25564;53.312;9.790;2022-09-17T00:19:48;99832.38;;;12.50;96.88
39891;BME280;25564;53.312;9.790;2022-09-17T00:22:20;99816.81;;;12.40;97.13
39891;BME280;25564;53.312;9.790;2022-09-17T00:24:51;99824.56;;;12.47;97.06
39891;BME280;25564;53.312;9.790;2022-09-17T00:27:22;99816.81;;;12.40;96.86
39891;BME280;25564;53.312;9.790;2022-09-17T00:29:54;99834.63;;;12.38;96.77
39891;BME280;25564;53.312;9.790;2022-09-17T00:32:25;99825.97;;;12.33;96.86
39891;BME280;25564;53.312;9.790;2022-09-17T00:34:57;99842.56;;;12.40;96.85
39891;BME280;25564;53.312;9.790;2022-09-17T00:37:28;99842.50;;;12.41;97.05
39891;BME280;25564;53.312;9.790;2022-09-17T00:40:00;99844.22;;;12.42;96.83
39891;BME280;25564;53.312;9.790;2022-09-17T00:42:31;99841.75;;;12.38;96.61
39891;BME280;25564;53.312;9.790;2022-09-17T00:45:03;99848.00;;;12.37;96.76
39891;BME280;25564;53.312;9.790;2022-09-17T00:47:39;99858.75;;;12.34;96.71
39891;BME280;25564;53.312;9.790;2022-09-17T00:50:15;99850.91;;;12.31;96.98
39891;BME280;25564;53.312;9.790;2022-09-17T00:52:50;99848.34;;;12.28;96.92
39891;BME280;25564;53.312;9.790;2022-09-17T00:57:59;99843.44;;;12.17;97.07
39891;BME280;25564;53.312;9.790;2022-09-17T01:00:32;99858.47;;;12.18;96.83
39891;BME280;25564;53.312;9.790;2022-09-17T01:03:04;99856.00;;;12.14;97.02
39891;BME280;25564;53.312;9.790;2022-09-17T01:05:58;99849.09;;;12.08;96.90
39891;BME280;25564;53.312;9.790;2022-09-17T01:20:08;99855.81;;;11.95;97.40
39891;BME280;25564;53.312;9.790;2022-09-17T01:25:50;99838.97;;;11.94;97.72
39891;BME280;25564;53.312;9.790;2022-09-17T01:28:33;99860.78;;;12.04;97.52
39891;BME280;25564;53.312;9.790;2022-09-17T01:31:17;99859.75;;;12.08;97.44
39891;BME280;25564;53.312;9.790;2022-09-17T01:34:17;99846.78;;;11.99;97.26
39891;BME280;25564;53.312;9.790;2022-09-17T01:37:04;99859.50;;;12.14;97.57
39891;BME280;25564;53.312;9.790;2022-09-17T01:42:48;99858.34;;;12.21;97.66
39891;BME280;25564;53.312;9.790;2022-09-17T01:45:28;99860.91;;;12.24;97.47
39891;BME280;25564;53.312;9.790;2022-09-17T01:50:51;99843.38;;;12.19;97.56
39891;BME280;25564;53.312;9.790;2022-09-17T01:53:28;99863.44;;;12.27;97.25
39891;BME280;25564;53.312;9.790;2022-09-17T01:56:02;99853.03;;;12.21;97.02
39891;BME280;25564;53.312;9.790;2022-09-17T01:58:42;99872.34;;;12.26;97.05
39891;BME280;25564;53.312;9.790;2022-09-17T02:01:18;99853.38;;;12.12;96.97
39891;BME280;25564;53.312;9.790;2022-09-17T02:03:58;99868.25;;;12.18;96.96
39891;BME280;25564;53.312;9.790;2022-09-17T02:06:35;99861.47;;;12.09;97.00
39891;BME280;25564;53.312;9.790;2022-09-17T02:09:15;99874.56;;;12.15;97.37
39891;BME280;25564;53.312;9.790;2022-09-17T02:11:54;99862.47;;;12.06;97.08
39891;BME280;25564;53.312;9.790;2022-09-17T02:14:35;99869.47;;;12.09;97.27
39891;BME280;25564;53.312;9.790;2022-09-17T02:17:34;99857.25;;;12.03;97.15
39891;BME280;25564;53.312;9.790;2022-09-17T02:20:07;99858.94;;;12.06;97.12
39891;BME280;25564;53.312;9.790;2022-09-17T02:22:51;99868.66;;;12.07;97.13
39891;BME280;25564;53.312;9.790;2022-09-17T02:25:32;99872.22;;;12.06;97.10
39891;BME280;25564;53.312;9.790;2022-09-17T02:28:21;99885.53;;;12.06;97.09
39891;BME280;25564;53.312;9.790;2022-09-17T02:30:56;99885.63;;;12.03;97.12
39891;BME280;25564;53.312;9.790;2022-09-17T02:33:29;99872.47;;;12.00;97.12
39891;BME280;25564;53.312;9.790;2022-09-17T02:36:01;99878.69;;;11.99;97.12
39891;BME280;25564;53.312;9.790;2022-09-17T02:38:32;99872.97;;;11.86;97.21
39891;BME280;25564;53.312;9.790;2022-09-17T02:41:20;99873.81;;;11.87;97.18
39891;BME280;25564;53.312;9.790;2022-09-17T02:44:00;99880.66;;;11.94;97.37
39891;BME280;25564;53.312;9.790;2022-09-17T02:47:01;99880.66;;;11.94;97.38
39891;BME280;25564;53.312;9.790;2022-09-17T02:49:56;99877.13;;;11.93;97.32
39891;BME280;25564;53.312;9.790;2022-09-17T02:55:31;99876.44;;;11.88;97.33
39891;BME280;25564;53.312;9.790;2022-09-17T02:58:18;99870.34;;;11.85;97.17
39891;BME280;25564;53.312;9.790;2022-09-17T03:00:53;99861.56;;;11.83;97.64
39891;BME280;25564;53.312;9.790;2022-09-17T03:03:33;99871.28;;;11.84;97.37
39891;BME280;25564;53.312;9.790;2022-09-17T03:06:06;99879.31;;;11.82;97.24
39891;BME280;25564;53.312;9.790;2022-09-17T03:08:40;99878.44;;;11.82;97.48
39891;BME280;25564;53.312;9.790;2022-09-17T03:11:12;99871.53;;;11.76;97.34
39891;BME280;25564;53.312;9.790;2022-09-17T03:13:44;99874.16;;;11.77;97.19
39891;BME280;25564;53.312;9.790;2022-09-17T03:16:15;99883.88;;;11.78;97.31
39891;BME280;25564;53.312;9.790;2022-09-17T03:18:47;99872.50;;;11.73;97.29
39891;BME280;25564;53.312;9.790;2022-09-17T03:21:18;99880.34;;;11.78;97.58
39891;BME280;25564;53.312;9.790;2022-09-17T03:23:49;99867.28;;;11.70;97.00
39891;BME280;25564;53.312;9.790;2022-09-17T03:26:21;99869.09;;;11.70;97.09
39891;BME280;25564;53.312;9.790;2022-09-17T03:28:52;99878.69;;;11.74;97.26
39891;BME280;25564;53.312;9.790;2022-09-17T03:31:23;99887.75;;;11.68;97.30
39891;BME280;25564;53.312;9.790;2022-09-17T03:33:55;99867.03;;;11.53;96.99
39891;BME280;25564;53.312;9.790;2022-09-17T03:36:26;99879.28;;;11.57;97.26
39891;BME280;25564;53.312;9.790;2022-09-17T03:38:59;99887.19;;;11.59;97.23
39891;BME280;25564;53.312;9.790;2022-09-17T03:41:30;99881.22;;;11.52;97.26
39891;BME280;25564;53.312;9.790;2022-09-17T03:44:02;99886.59;;;11.51;97.27
39891;BME280;25564;53.312;9.790;2022-09-17T03:46:33;99887.56;;;11.48;97.30
39891;BME280;25564;53.312;9.790;2022-09-17T03:49:05;99888.44;;;11.48;97.08
39891;BME280;25564;53.312;9.790;2022-09-17T03:51:36;99889.66;;;11.40;97.40
39891;BME280;25564;53.312;9.790;2022-09-17T03:54:07;99893.34;;;11.36;97.26
39891;BME280;25564;53.312;9.790;2022-09-17T03:56:39;99899.63;;;11.33;97.49
39891;BME280;25564;53.312;9.790;2022-09-17T03:59:10;99889.19;;;11.27;97.00
39891;BME280;25564;53.312;9.790;2022-09-17T04:01:42;99902.22;;;11.35;97.10
39891;BME280;25564;53.312;9.790;2022-09-17T04:04:13;99903.09;;;11.35;96.89
39891;BME280;25564;53.312;9.790;2022-09-17T04:06:44;99896.81;;;11.38;97.45
39891;BME280;25564;53.312;9.790;2022-09-17T04:09:16;99886.50;;;11.29;97.59
39891;BME280;25564;53.312;9.790;2022-09-17T04:11:47;99885.41;;;11.34;97.65
39891;BME280;25564;53.312;9.790;2022-09-17T04:14:18;99885.47;;;11.33;97.04
39891;BME280;25564;53.312;9.790;2022-09-17T04:16:50;99898.44;;;11.42;97.40
39891;BME280;25564;53.312;9.790;2022-09-17T04:19:21;99898.53;;;11.39;97.28
39891;BME280;25564;53.312;9.790;2022-09-17T04:21:52;99908.19;;;11.41;97.35
39891;BME280;25564;53.312;9.790;2022-09-17T04:24:23;99901.34;;;11.34;97.50
39891;BME280;25564;53.312;9.790;2022-09-17T04:26:55;99890.88;;;11.30;97.58
39891;BME280;25564;53.312;9.790;2022-09-17T04:29:26;99907.44;;;11.38;97.54
39891;BME280;25564;53.312;9.790;2022-09-17T04:31:58;99900.69;;;11.28;97.05
39891;BME280;25564;53.312;9.790;2022-09-17T04:34:29;99918.34;;;11.29;97.50
39891;BME280;25564;53.312;9.790;2022-09-17T04:37:02;99922.75;;;11.30;97.22
39891;BME280;25564;53.312;9.790;2022-09-17T04:39:33;99928.13;;;11.28;97.15
39891;BME280;25564;53.312;9.790;2022-09-17T04:42:04;99921.94;;;11.28;97.42
39891;BME280;25564;53.312;9.790;2022-09-17T04:44:36;99914.28;;;11.19;97.22
39891;BME280;25564;53.312;9.790;2022-09-17T04:47:07;99920.31;;;11.24;97.50
39891;BME280;25564;53.312;9.790;2022-09-17T04:49:38;99910.75;;;11.18;97.52
39891;BME280;25564;53.312;9.790;2022-09-17T04:52:10;99917.03;;;11.16;97.14
39891;BME280;25564;53.312;9.790;2022-09-17T04:54:41;99922.13;;;11.22;97.38
39891;BME280;25564;53.312;9.790;2022-09-17T04:57:12;99930.16;;;11.20;97.51
39891;BME280;25564;53.312;9.790;2022-09-17T04:59:45;99928.38;;;11.21;97.62
39891;BME280;25564;53.312;9.790;2022-09-17T05:02:16;99921.38;;;11.18;97.44
39891;BME280;25564;53.312;9.790;2022-09-17T05:04:47;99933.72;;;11.19;97.32
39891;BME280;25564;53.312;9.790;2022-09-17T05:07:20;99931.06;;;11.19;97.30
39891;BME280;25564;53.312;9.790;2022-09-17T05:09:52;99927.44;;;11.22;97.52
39891;BME280;25564;53.312;9.790;2022-09-17T05:12:23;99930.91;;;11.24;97.58
39891;BME280;25564;53.312;9.790;2022-09-17T05:14:55;99937.06;;;11.26;97.54
39891;BME280;25564;53.312;9.790;2022-09-17T05:17:26;99926.59;;;11.21;97.42
39891;BME280;25564;53.312;9.790;2022-09-17T05:19:57;99938.69;;;11.30;97.33
39891;BME280;25564;53.312;9.790;2022-09-17T05:22:29;99929.97;;;11.26;97.79
39891;BME280;25564;53.312;9.790;2022-09-17T05:25:00;99941.25;;;11.33;97.60
39891;BME280;25564;53.312;9.790;2022-09-17T05:27:31;99933.53;;;11.25;97.28
39891;BME280;25564;53.312;9.790;2022-09-17T05:30:03;99926.69;;;11.18;97.17
39891;BME280;25564;53.312;9.790;2022-09-17T05:32:35;99920.66;;;11.13;96.91
39891;BME280;25564;53.312;9.790;2022-09-17T05:35:07;99933.69;;;11.21;97.44
39891;BME280;25564;53.312;9.790;2022-09-17T05:37:39;99939.00;;;11.21;97.20
39891;BME280;25564;53.312;9.790;2022-09-17T05:40:11;99936.19;;;11.25;97.36
39891;BME280;25564;53.312;9.790;2022-09-17T05:42:42;99939.72;;;11.26;97.35
39891;BME280;25564;53.312;9.790;2022-09-17T05:45:13;99943.19;;;11.28;97.45
39891;BME280;25564;53.312;9.790;2022-09-17T05:47:45;99941.34;;;11.30;97.37
39891;BME280;25564;53.312;9.790;2022-09-17T05:50:16;99951.09;;;11.29;96.97
39891;BME280;25564;53.312;9.790;2022-09-17T05:52:47;99941.44;;;11.27;96.93
39891;BME280;25564;53.312;9.790;2022-09-17T05:55:20;99943.28;;;11.25;97.15
39891;BME280;25564;53.312;9.790;2022-09-17T05:57:52;99934.59;;;11.20;96.79
39891;BME280;25564;53.312;9.790;2022-09-17T06:00:23;99939.84;;;11.21;96.96
39891;BME280;25564;53.312;9.790;2022-09-17T06:02:55;99932.00;;;11.18;96.79
39891;BME280;25564;53.312;9.790;2022-09-17T06:05:28;99960.97;;;11.26;97.38
39891;BME280;25564;53.312;9.790;2022-09-17T06:07:59;99956.72;;;11.20;96.80
39891;BME280;25564;53.312;9.790;2022-09-17T06:10:31;99951.66;;;11.12;97.04
39891;BME280;25564;53.312;9.790;2022-09-17T06:13:02;99963.09;;;11.14;97.00
39891;BME280;25564;53.312;9.790;2022-09-17T06:15:33;99967.53;;;11.14;97.13
39891;BME280;25564;53.312;9.790;2022-09-17T06:18:05;99954.53;;;11.05;97.11
39891;BME280;25564;53.312;9.790;2022-09-17T06:20:36;99964.25;;;11.06;96.63
39891;BME280;25564;53.312;9.790;2022-09-17T06:23:07;99957.53;;;10.94;96.37
39891;BME280;25564;53.312;9.790;2022-09-17T06:25:55;99966.38;;;10.95;97.05
39891;BME280;25564;53.312;9.790;2022-09-17T06:28:27;99955.06;;;10.88;97.25
39891;BME280;25564;53.312;9.790;2022-09-17T06:31:03;99979.22;;;11.08;97.67
39891;BME280;25564;53.312;9.790;2022-09-17T06:33:35;99969.28;;;11.15;97.77
39891;BME280;25564;53.312;9.790;2022-09-17T06:36:08;99974.97;;;11.31;98.17
39891;BME280;25564;53.312;9.790;2022-09-17T06:38:44;99979.63;;;11.49;98.46
39891;BME280;25564;53.312;9.790;2022-09-17T06:41:16;99979.69;;;11.74;98.86
39891;BME280;25564;53.312;9.790;2022-09-17T06:43:51;99985.22;;;11.94;98.74
39891;BME280;25564;53.312;9.790;2022-09-17T06:46:22;99991.63;;;12.14;98.94
39891;BME280;25564;53.312;9.790;2022-09-17T06:48:54;99993.59;;;12.33;99.06
39891;BME280;25564;53.312;9.790;2022-09-17T06:51:25;99992.44;;;12.40;98.37
39891;BME280;25564;53.312;9.790;2022-09-17T06:53:57;99980.16;;;12.36;97.37
39891;BME280;25564;53.312;9.790;2022-09-17T06:56:28;99983.75;;;12.35;97.34
39891;BME280;25564;53.312;9.790;2022-09-17T06:59:00;99974.97;;;12.33;96.85
39891;BME280;25564;53.312;9.790;2022-09-17T07:01:31;99976.53;;;12.39;97.01
39891;BME280;25564;53.312;9.790;2022-09-17T07:04:03;99984.41;;;12.42;96.85
39891;BME280;25564;53.312;9.790;2022-09-17T07:06:34;99963.28;;;12.37;96.64
39891;BME280;25564;53.312;9.790;2022-09-17T07:09:05;99982.28;;;12.50;96.60
39891;BME280;25564;53.312;9.790;2022-09-17T07:11:41;99973.31;;;12.53;96.17
39891;BME280;25564;53.312;9.790;2022-09-17T07:14:12;99982.00;;;12.58;96.56
39891;BME280;25564;53.312;9.790;2022-09-17T07:16:44;99980.38;;;12.77;96.99
39891;BME280;25564;53.312;9.790;2022-09-17T07:19:15;99973.41;;;12.96;96.80
39891;BME280;25564;53.312;9.790;2022-09-17T07:21:47;99973.75;;;13.10;96.73
39891;BME280;25564;53.312;9.790;2022-09-17T07:24:19;99966.34;;;13.19;96.15
39891;BME280;25564;53.312;9.790;2022-09-17T07:26:50;99969.16;;;13.14;95.08
39891;BME280;25564;53.312;9.790;2022-09-17T07:29:21;99966.88;;;13.05;95.06
39891;BME280;25564;53.312;9.790;2022-09-17T07:31:56;99974.00;;;13.04;95.21
39891;BME280;25564;53.312;9.790;2022-09-17T07:34:29;99961.59;;;13.03;94.90
39891;BME280;25564;53.312;9.790;2022-09-17T07:37:00;99979.38;;;13.26;96.09
39891;BME280;25564;53.312;9.790;2022-09-17T07:39:32;99975.22;;;13.41;95.42
39891;BME280;25564;53.312;9.790;2022-09-17T07:42:03;99980.09;;;13.52;95.45
39891;BME280;25564;53.312;9.790;2022-09-17T07:44:35;99982.53;;;13.56;94.54
39891;BME280;25564;53.312;9.790;2022-09-17T07:47:06;99996.69;;;13.58;94.35
39891;BME280;25564;53.312;9.790;2022-09-17T07:49:38;99996.63;;;13.60;94.07
39891;BME280;25564;53.312;9.790;2022-09-17T07:52:09;99998.97;;;13.67;94.63
39891;BME280;25564;53.312;9.790;2022-09-17T07:54:41;100009.13;;;13.80;94.74
39891;BME280;25564;53.312;9.790;2022-09-17T07:57:12;100001.59;;;13.89;94.10
39891;BME280;25564;53.312;9.790;2022-09-17T07:59:43;100003.13;;;13.95;93.97
39891;BME280;25564;53.312;9.790;2022-09-17T08:02:15;100004.28;;;14.10;94.84
39891;BME280;25564;53.312;9.790;2022-09-17T08:04:52;100013.16;;;14.30;94.45
39891;BME280;25564;53.312;9.790;2022-09-17T08:07:24;100001.25;;;14.37;93.88
39891;BME280;25564;53.312;9.790;2022-09-17T08:09:55;100010.13;;;14.38;92.96
39891;BME280;25564;53.312;9.790;2022-09-17T08:12:26;100001.25;;;14.37;92.99
39891;BME280;25564;53.312;9.790;2022-09-17T08:14:58;100003.06;;;14.37;92.81
39891;BME280;25564;53.312;9.790;2022-09-17T08:17:29;100013.75;;;14.37;92.53
39891;BME280;25564;53.312;9.790;2022-09-17T08:20:01;100016.41;;;14.57;93.66
39891;BME280;25564;53.312;9.790;2022-09-17T08:22:33;100028.47;;;14.66;92.00
39891;BME280;25564;53.312;9.790;2022-09-17T08:25:08;100008.34;;;14.18;88.74
39891;BME280;25564;53.312;9.790;2022-09-17T08:27:40;99986.44;;;13.49;88.77
39891;BME280;25564;53.312;9.790;2022-09-17T08:30:11;99995.81;;;13.14;90.08
39891;BME280;25564;53.312;9.790;2022-09-17T08:32:42;99985.59;;;12.80;91.64
39891;BME280;25564;53.312;9.790;2022-09-17T08:35:14;100007.56;;;12.62;91.54
39891;BME280;25564;53.312;9.790;2022-09-17T08:37:46;100000.41;;;12.40;91.85
39891;BME280;25564;53.312;9.790;2022-09-17T08:40:19;99995.16;;;12.14;92.01
39891;BME280;25564;53.312;9.790;2022-09-17T08:42:58;99996.34;;;12.05;92.88
39891;BME280;25564;53.312;9.790;2022-09-17T08:45:32;99992.53;;;11.88;91.94
39891;BME280;25564;53.312;9.790;2022-09-17T08:48:04;99993.50;;;11.85;93.19
39891;BME280;25564;53.312;9.790;2022-09-17T08:50:35;99988.81;;;11.93;94.64
39891;BME280;25564;53.312;9.790;2022-09-17T08:53:40;99979.97;;;12.18;95.30
39891;BME280;25564;53.312;9.790;2022-09-17T08:56:18;99978.09;;;12.44;95.83
39891;BME280;25564;53.312;9.790;2022-09-17T08:59:00;99988.44;;;12.75;96.10
39891;BME280;25564;53.312;9.790;2022-09-17T09:01:44;99991.94;;;12.99;96.02
39891;BME280;25564;53.312;9.790;2022-09-17T09:04:53;99977.00;;;13.19;95.01
39891;BME280;25564;53.312;9.790;2022-09-17T09:07:37;99983.56;;;13.32;95.62
39891;BME280;25564;53.312;9.790;2022-09-17T09:10:27;99986.69;;;13.43;95.70
39891;BME280;25564;53.312;9.790;2022-09-17T09:13:00;99990.41;;;13.59;95.52
39891;BME280;25564;53.312;9.790;2022-09-17T09:15:51;99985.78;;;13.85;95.81
39891;BME280;25564;53.312;9.790;2022-09-17T09:18:28;99987.00;;;14.18;95.31
39891;BME280;25564;53.312;9.790;2022-09-17T09:23:55;99963.09;;;14.56;95.19
39891;BME280;25564;53.312;9.790;2022-09-17T09:26:50;99974.25;;;14.64;93.62
39891;BME280;25564;53.312;9.790;2022-09-17T09:32:27;99974.41;;;14.42;92.19
39891;BME280;25564;53.312;9.790;2022-09-17T09:35:22;99982.53;;;14.19;90.88
39891;BME280;25564;53.312;9.790;2022-09-17T09:38:47;99972.19;;;13.91;91.71
39891;BME280;25564;53.312;9.790;2022-09-17T09:41:21;99992.13;;;14.02;93.38
39891;BME280;25564;53.312;9.790;2022-09-17T09:44:04;99992.47;;;14.15;93.75
39891;BME280;25564;53.312;9.790;2022-09-17T09:55:53;99996.28;;;14.69;93.36
39891;BME280;25564;53.312;9.790;2022-09-17T09:58:34;99990.50;;;14.78;92.23
39891;BME280;25564;53.312;9.790;2022-09-17T10:01:17;99978.94;;;14.59;91.29
39891;BME280;25564;53.312;9.790;2022-09-17T10:03:52;100013.38;;;14.65;91.42
39891;BME280;25564;53.312;9.790;2022-09-17T10:06:28;99997.81;;;14.56;90.49
39891;BME280;25564;53.312;9.790;2022-09-17T10:11:34;99998.88;;;14.31;90.36
39891;BME280;25564;53.312;9.790;2022-09-17T10:16:46;100008.16;;;14.23;91.04
39891;BME280;25564;53.312;9.790;2022-09-17T10:19:20;99991.41;;;14.19;90.29
39891;BME280;25564;53.312;9.790;2022-09-17T10:21:55;100000.34;;;14.18;90.48
39891;BME280;25564;53.312;9.790;2022-09-17T10:24:29;99989.13;;;14.10;90.02
39891;BME280;25564;53.312;9.790;2022-09-17T10:27:12;99980.59;;;14.02;89.78
39891;BME280;25564;53.312;9.790;2022-09-17T10:29:46;99969.84;;;13.83;90.10
39891;BME280;25564;53.312;9.790;2022-09-17T10:32:21;99970.50;;;13.68;90.41
39891;BME280;25564;53.312;9.790;2022-09-17T10:37:35;99962.75;;;13.20;90.48
39891;BME280;25564;53.312;9.790;2022-09-17T10:42:53;99962.00;;;13.16;91.66
39891;BME280;25564;53.312;9.790;2022-09-17T10:45:44;99960.81;;;13.45;92.46
39891;BME280;25564;53.312;9.790;2022-09-17T10:48:18;99945.97;;;13.60;92.16
39891;BME280;25564;53.312;9.790;2022-09-17T10:50:54;99948.72;;;13.79;91.98
39891;BME280;25564;53.312;9.790;2022-09-17T10:53:26;99958.06;;;13.89;91.75
39891;BME280;25564;53.312;9.790;2022-09-17T10:56:19;99950.63;;;13.75;90.83
39891;BME280;25564;53.312;9.790;2022-09-17T10:59:17;99949.38;;;13.63;90.94
39891;BME280;25564;53.312;9.790;2022-09-17T11:02:05;99948.13;;;13.52;91.00
39891;BME280;25564;53.312;9.790;2022-09-17T11:13:20;99932.69;;;13.38;91.89
39891;BME280;25564;53.312;9.790;2022-09-17T11:16:05;99941.56;;;13.38;92.08
39891;BME280;25564;53.312;9.790;2022-09-17T11:18:44;99942.56;;;13.36;91.65
39891;BME280;25564;53.312;9.790;2022-09-17T11:21:32;99933.25;;;13.46;91.98
39891;BME280;25564;53.312;9.790;2022-09-17T11:24:30;99933.97;;;13.50;91.66
39891;BME280;25564;53.312;9.790;2022-09-17T11:27:25;99930.03;;;13.38;91.71
39891;BME280;25564;53.312;9.790;2022-09-17T11:30:16;99920.88;;;13.23;91.72
39891;BME280;25564;53.312;9.790;2022-09-17T11:33:08;99916.88;;;13.12;91.79
39891;BME280;25564;53.312;9.790;2022-09-17T11:35:48;99914.69;;;12.99;91.87
39891;BME280;25564;53.312;9.790;2022-09-17T11:38:37;99908.69;;;12.94;91.72
39891;BME280;25564;53.312;9.790;2022-09-17T11:41:30;99906.97;;;12.93;91.99
39891;BME280;25564;53.312;9.790;2022-09-17T11:44:16;99910.22;;;12.78;91.71
39891;BME280;25564;53.312;9.790;2022-09-17T11:46:59;99915.47;;;12.58;91.58
39891;BME280;25564;53.312;9.790;2022-09-17T11:49:43;99896.88;;;12.34;92.06
39891;BME280;25564;53.312;9.790;2022-09-17T11:52:23;99909.72;;;12.23;92.04
39891;BME280;25564;53.312;9.790;2022-09-17T11:55:17;99894.97;;;12.15;92.72
39891;BME280;25564;53.312;9.790;2022-09-17T11:57:56;99882.69;;;12.10;93.10
39891;BME280;25564;53.312;9.790;2022-09-17T12:00:40;99871.41;;;12.04;93.19
39891;BME280;25564;53.312;9.790;2022-09-17T12:03:20;99880.38;;;12.01;93.31
39891;BME280;25564;53.312;9.790;2022-09-17T12:05:57;99875.28;;;11.95;93.53
39891;BME280;25564;53.312;9.790;2022-09-17T12:08:52;99888.63;;;11.94;93.74
39891;BME280;25564;53.312;9.790;2022-09-17T12:15:12;99868.81;;;12.02;94.32
39891;BME280;25564;53.312;9.790;2022-09-17T12:21:07;99873.44;;;12.44;95.20
39891;BME280;25564;53.312;9.790;2022-09-17T12:26:25;99886.63;;;12.69;94.47
39891;BME280;25564;53.312;9.790;2022-09-17T12:29:19;99876.56;;;12.77;95.03
39891;BME280;25564;53.312;9.790;2022-09-17T12:32:31;99866.09;;;12.94;95.07
39891;BME280;25564;53.312;9.790;2022-09-17T12:35:29;99859.44;;;13.04;94.82
39891;BME280;25564;53.312;9.790;2022-09-17T12:44:04;99868.06;;;13.33;95.54
39891;BME280;25564;53.312;9.790;2022-09-17T13:10:40;99868.94;;;14.88;92.61
39891;BME280;25564;53.312;9.790;2022-09-17T13:16:05;99881.28;;;14.72;92.93
39891;BME280;25564;53.312;9.790;2022-09-17T13:22:14;99875.28;;;14.50;92.92
39891;BME280;25564;53.312;9.790;2022-09-17T13:25:01;99875.47;;;14.45;93.55
39891;BME280;25564;53.312;9.790;2022-09-17T13:27:33;99872.09;;;14.42;92.99
39891;BME280;25564;53.312;9.790;2022-09-17T13:30:09;99877.75;;;14.34;93.23
39891;BME280;25564;53.312;9.790;2022-09-17T13:32:42;99869.22;;;14.26;92.96
39891;BME280;25564;53.312;9.790;2022-09-17T13:40:33;99879.91;;;13.87;93.15
39891;BME280;25564;53.312;9.790;2022-09-17T13:43:09;99881.78;;;13.85;93.29
39891;BME280;25564;53.312;9.790;2022-09-17T13:48:34;99872.66;;;13.70;93.06
39891;BME280;25564;53.312;9.790;2022-09-17T13:51:41;99867.03;;;13.76;93.80
39891;BME280;25564;53.312;9.790;2022-09-17T13:54:14;99869.38;;;13.84;93.92
39891;BME280;25564;53.312;9.790;2022-09-17T13:56:49;99867.97;;;13.95;94.35
39891;BME280;25564;53.312;9.790;2022-09-17T13:59:24;99857.91;;;14.21;95.08
39891;BME280;25564;53.312;9.790;2022-09-17T14:09:57;99853.78;;;14.70;94.00
39891;BME280;25564;53.312;9.790;2022-09-17T14:15:53;99849.66;;;14.82;94.11
39891;BME280;25564;53.312;9.790;2022-09-17T14:23:45;99839.22;;;14.39;93.28
39891;BME280;25564;53.312;9.790;2022-09-17T14:26:30;99851.59;;;14.42;92.95
39891;BME280;25564;53.312;9.790;2022-09-17T14:32:05;99845.09;;;14.48;93.26
39891;BME280;25564;53.312;9.790;2022-09-17T14:34:36;99859.31;;;14.48;92.49
39891;BME280;25564;53.312;9.790;2022-09-17T14:37:15;99845.78;;;14.32;92.55
39891;BME280;25564;53.312;9.790;2022-09-17T14:39:48;99860.22;;;14.28;92.55
39891;BME280;25564;53.312;9.790;2022-09-17T14:42:24;99862.44;;;14.19;92.16
39891;BME280;25564;53.312;9.790;2022-09-17T14:45:02;99861.34;;;14.04;91.89
39891;BME280;25564;53.312;9.790;2022-09-17T14:47:35;99864.84;;;13.86;91.62
39891;BME280;25564;53.312;9.790;2022-09-17T14:50:19;99867.50;;;13.65;92.02
39891;BME280;25564;53.312;9.790;2022-09-17T14:52:53;99857.75;;;13.46;92.46
39891;BME280;25564;53.312;9.790;2022-09-17T14:55:27;99852.94;;;13.33;92.92
39891;BME280;25564;53.312;9.790;2022-09-17T14:58:01;99862.38;;;13.20;92.33
39891;BME280;25564;53.312;9.790;2022-09-17T15:00:36;99860.25;;;13.06;92.94
39891;BME280;25564;53.312;9.790;2022-09-17T15:03:19;99856.53;;;12.89;92.99
39891;BME280;25564;53.312;9.790;2022-09-17T15:05:51;99856.84;;;12.81;93.47
39891;BME280;25564;53.312;9.790;2022-09-17T15:08:25;99881.75;;;12.80;93.67
39891;BME280;25564;53.312;9.790;2022-09-17T15:11:08;99906.72;;;12.54;93.36
39891;BME280;25564;53.312;9.790;2022-09-17T15:13:49;99902.59;;;12.47;92.60
39891;BME280;25564;53.312;9.790;2022-09-17T15:16:23;99899.19;;;12.20;92.49
39891;BME280;25564;53.312;9.790;2022-09-17T15:19:00;99900.72;;;12.02;92.82
39891;BME280;25564;53.312;9.790;2022-09-17T15:21:42;99893.94;;;11.94;93.35
39891;BME280;25564;53.312;9.790;2022-09-17T15:24:22;99897.59;;;11.91;93.69
39891;BME280;25564;53.312;9.790;2022-09-17T15:26:57;99882.84;;;11.83;93.87
39891;BME280;25564;53.312;9.790;2022-09-17T15:29:32;99895.09;;;11.87;94.19
39891;BME280;25564;53.312;9.790;2022-09-17T15:32:04;99901.34;;;11.86;94.31
39891;BME280;25564;53.312;9.790;2022-09-17T15:34:36;99893.41;;;11.84;94.53
39891;BME280;25564;53.312;9.790;2022-09-17T15:37:19;99887.94;;;11.89;95.03
39891;BME280;25564;53.312;9.790;2022-09-17T15:39:52;99903.78;;;11.92;94.81
39891;BME280;25564;53.312;9.790;2022-09-17T15:42:28;99902.03;;;11.91;94.99
39891;BME280;25564;53.312;9.790;2022-09-17T15:45:08;99899.38;;;11.91;95.14
39891;BME280;25564;53.312;9.790;2022-09-17T15:47:56;99890.59;;;11.89;95.30
39891;BME280;25564;53.312;9.790;2022-09-17T15:50:30;99896.84;;;11.88;95.61
39891;BME280;25564;53.312;9.790;2022-09-17T15:55:43;99897.66;;;11.90;95.76
39891;BME280;25564;53.312;9.790;2022-09-17T15:58:30;99895.63;;;11.96;96.07
39891;BME280;25564;53.312;9.790;2022-09-17T16:04:23;99910.50;;;12.02;96.19
39891;BME280;25564;53.312;9.790;2022-09-17T16:09:48;99919.19;;;12.07;96.32
39891;BME280;25564;53.312;9.790;2022-09-17T16:12:22;99927.97;;;12.09;96.24